Time;durP1;ratioP1;P1;durP2;ratioP2;P2;SDS_P1;SDS_P2;PMS_P1;PMS_P2;Temp;Humidity;BMP_temperature;BMP_pressure;BME280_temperature;BME280_humidity;BME280_pressure;Samples;Min_cycle;Max_cycle;Signal;HPM_P1;HPM_P2
2022/03/16 00:02:23;;;;;;;;;;;;;;;0.36;86.44;101407.03;5041124;28;1191;-84
2022/03/16 00:04:52;;;;;;;;;;;;;;;0.29;86.45;101398.06;5039477;28;1207;-85
2022/03/16 00:07:18;;;;;;;;;;;;;;;0.32;87.21;101395.00;5041418;28;1306;-85
2022/03/16 00:09:43;;;;;;;;;;;;;;;0.26;87.03;101394.91;5042299;28;1898;-84
2022/03/16 00:12:09;;;;;;;;;;;;;;;0.15;87.27;101392.75;5059072;28;1541;-86
2022/03/16 00:14:35;;;;;;;;;;;;;;;0.20;86.62;101390.28;5041607;28;1498;-85
2022/03/16 00:17:00;;;;;;;;;;;;;;;0.24;86.44;101397.81;5041191;28;1357;-85
2022/03/16 00:19:25;;;;;;;;;;;;;;;0.26;86.49;101401.13;5040326;28;1459;-85
2022/03/16 00:21:50;;;;;;;;;;;;;;;0.26;86.43;101403.81;5040647;28;1362;-85
2022/03/16 00:24:16;;;;;;;;;;;;;;;0.33;86.79;101412.00;5058316;28;1526;-85
2022/03/16 00:26:41;;;;;;;;;;;;;;;0.25;86.00;101406.72;5040196;28;1463;-85
2022/03/16 00:29:06;;;;;;;;;;;;;;;0.10;86.18;101412.13;5057770;28;1158;-85
2022/03/16 00:31:31;;;;;;;;;;;;;;;0.07;86.78;101409.00;5038603;28;1955;-86
2022/03/16 00:33:56;;;;;;;;;;;;;;;0.03;87.21;101413.91;5037426;28;1598;-86
2022/03/16 00:36:22;;;;;;;;;;;;;;;0.10;87.10;101414.81;5037013;28;1499;-85
2022/03/16 00:38:47;;;;;;;;;;;;;;;0.00;86.20;101423.19;5051238;28;1518;-85
2022/03/16 00:41:12;;;;;;;;;;;;;;;-0.07;86.10;101421.47;5037479;28;1478;-85
2022/03/16 00:43:38;;;;;;;;;;;;;;;0.04;87.37;101423.66;5021507;28;1539;-85
2022/03/16 00:46:03;;;;;;;;;;;;;;;0.17;88.08;101423.81;5047393;28;1403;-85
2022/03/16 00:48:28;;;;;;;;;;;;;;;0.22;87.93;101416.00;5040594;28;1304;-85
2022/03/16 00:50:53;;;;;;;;;;;;;;;0.03;86.83;101415.78;5041093;28;1923;-85
2022/03/16 00:53:18;;;;;;;;;;;;;;;-0.07;86.77;101424.16;5039736;28;1298;-85
2022/03/16 00:55:43;;;;;;;;;;;;;;;-0.04;87.17;101419.22;5054179;28;1360;-85
2022/03/16 00:58:08;;;;;;;;;;;;;;;-0.12;87.31;101421.19;5040590;28;1451;-85
2022/03/16 01:00:34;;;;;;;;;;;;;;;-0.07;87.48;101421.47;5039214;28;1470;-85
2022/03/16 01:02:59;;;;;;;;;;;;;;;-0.01;87.45;101428.78;5040063;28;1444;-85
2022/03/16 01:05:24;;;;;;;;;;;;;;;0.00;87.33;101427.78;5037886;28;1467;-85
2022/03/16 01:07:50;;;;;;;;;;;;;;;-0.06;87.52;101428.50;5053850;28;1467;-85
2022/03/16 01:10:15;;;;;;;;;;;;;;;0.02;87.46;101438.31;5036198;28;1951;-85
2022/03/16 01:12:40;;;;;;;;;;;;;;;-0.11;87.62;101433.63;5036134;28;1335;-85
2022/03/16 01:15:06;;;;;;;;;;;;;;;-0.05;87.96;101436.41;5036031;28;1223;-85
2022/03/16 01:17:31;;;;;;;;;;;;;;;-0.22;87.76;101440.31;5035973;28;1330;-86
2022/03/16 01:19:56;;;;;;;;;;;;;;;-0.29;87.46;101447.47;5036086;28;1545;-86
2022/03/16 01:22:21;;;;;;;;;;;;;;;-0.24;87.27;101447.72;5036244;28;1205;-85
2022/03/16 01:24:46;;;;;;;;;;;;;;;-0.23;87.51;101451.25;5035561;28;1197;-85
2022/03/16 01:27:12;;;;;;;;;;;;;;;-0.28;87.26;101443.75;5053885;28;1189;-85
2022/03/16 01:29:37;;;;;;;;;;;;;;;-0.29;87.34;101447.47;5036051;28;1894;-85
2022/03/16 01:32:02;;;;;;;;;;;;;;;-0.41;86.77;101433.66;5035830;28;838;-85
2022/03/16 01:34:27;;;;;;;;;;;;;;;-0.31;87.03;101438.75;5035557;28;1326;-85
2022/03/16 01:36:53;;;;;;;;;;;;;;;-0.36;86.84;101438.47;5035721;28;1518;-85
2022/03/16 01:39:19;;;;;;;;;;;;;;;-0.53;87.31;101439.69;5053455;28;948;-86
2022/03/16 01:41:44;;;;;;;;;;;;;;;-0.66;87.21;101443.00;5035837;28;1412;-84
2022/03/16 01:44:09;;;;;;;;;;;;;;;-0.54;87.44;101441.53;5035644;28;1416;-85
2022/03/16 01:46:35;;;;;;;;;;;;;;;-0.40;87.59;101445.25;5053626;28;991;-86
2022/03/16 01:49:00;;;;;;;;;;;;;;;-0.35;87.44;101450.91;5035697;28;1421;-85
2022/03/16 01:51:25;;;;;;;;;;;;;;;-0.77;86.98;101400.47;5028372;28;1956;-85
2022/03/16 01:53:51;;;;;;;;;;;;;;;-0.43;87.01;101465.28;5015949;28;1314;-85
2022/03/16 01:56:16;;;;;;;;;;;;;;;-0.45;86.50;101464.63;5042731;28;1463;-85
2022/03/16 01:58:42;;;;;;;;;;;;;;;-0.55;86.87;101461.38;5035566;28;1270;-85
2022/03/16 02:01:07;;;;;;;;;;;;;;;-0.59;87.02;101457.38;5032167;28;1262;-85
2022/03/16 02:03:32;;;;;;;;;;;;;;;-0.63;87.66;101458.78;5032312;28;1215;-85
2022/03/16 02:05:57;;;;;;;;;;;;;;;-0.73;86.60;101454.69;5032321;28;1054;-85
2022/03/16 02:08:22;;;;;;;;;;;;;;;-0.85;86.36;101457.81;5032007;28;1358;-85
2022/03/16 02:10:47;;;;;;;;;;;;;;;-0.83;86.12;101463.00;5035377;28;1890;-86
2022/03/16 02:13:13;;;;;;;;;;;;;;;-0.71;86.41;101458.84;5033211;28;1191;-85
2022/03/16 02:15:38;;;;;;;;;;;;;;;-0.61;86.77;101461.28;5018559;28;1499;-85
2022/03/16 02:18:03;;;;;;;;;;;;;;;-0.50;86.97;101464.34;5053145;28;1502;-86
2022/03/16 02:20:29;;;;;;;;;;;;;;;-0.51;86.99;101464.53;5035120;28;1297;-85
2022/03/16 02:23:01;;;;;;;;;;;;;;;-0.55;86.58;101469.44;5035400;28;1582;-85
2022/03/16 02:25:27;;;;;;;;;;;;;;;-0.51;87.26;101464.53;5035406;28;1160;-85
2022/03/16 02:27:53;;;;;;;;;;;;;;;-0.55;87.04;101472.13;5035416;28;1264;-85
2022/03/16 02:30:19;;;;;;;;;;;;;;;-0.49;86.72;101470.56;5035079;28;1901;-85
2022/03/16 02:32:44;;;;;;;;;;;;;;;-0.53;87.04;101456.66;5035308;28;1357;-86
2022/03/16 02:35:09;;;;;;;;;;;;;;;-0.61;86.36;101459.44;5033532;28;1314;-86
2022/03/16 02:37:38;;;;;;;;;;;;;;;-0.66;86.58;101459.13;5015367;28;1172;-85
2022/03/16 02:40:04;;;;;;;;;;;;;;;-0.60;87.00;101466.50;5033409;28;1377;-85
2022/03/16 02:42:29;;;;;;;;;;;;;;;-0.58;87.06;101469.81;5035247;28;1204;-85
2022/03/16 02:44:54;;;;;;;;;;;;;;;-0.73;86.96;101470.81;5034752;28;1310;-86
2022/03/16 02:47:19;;;;;;;;;;;;;;;-0.87;86.97;101469.78;5052952;28;1311;-85
2022/03/16 02:49:45;;;;;;;;;;;;;;;-0.92;87.17;101466.78;5053037;28;1963;-86
2022/03/16 02:52:10;;;;;;;;;;;;;;;-1.02;86.98;101468.91;5021971;28;1602;-85
2022/03/16 02:54:35;;;;;;;;;;;;;;;-1.02;87.01;101471.59;5038676;28;1662;-86
2022/03/16 02:57:01;;;;;;;;;;;;;;;-1.02;86.83;101474.28;5038866;28;1435;-85
2022/03/16 02:59:26;;;;;;;;;;;;;;;-0.93;86.85;101478.53;5056617;28;1463;-86
2022/03/16 03:01:51;;;;;;;;;;;;;;;-0.80;86.95;101476.09;5028820;28;1448;-85
2022/03/16 03:04:16;;;;;;;;;;;;;;;-0.67;86.66;101480.81;5036697;28;1416;-85
2022/03/16 03:06:41;;;;;;;;;;;;;;;-0.67;86.56;101484.34;5038619;28;972;-85
2022/03/16 03:09:07;;;;;;;;;;;;;;;-0.62;86.82;101487.34;5038402;28;1225;-85
2022/03/16 03:11:32;;;;;;;;;;;;;;;-0.61;86.66;101477.41;5038330;28;1902;-84
2022/03/16 03:13:57;;;;;;;;;;;;;;;-0.66;87.08;101469.88;5036634;28;1487;-85
2022/03/16 03:16:22;;;;;;;;;;;;;;;-0.65;86.51;101470.72;5031130;28;1462;-86
2022/03/16 03:18:47;;;;;;;;;;;;;;;-0.64;86.57;101467.84;5026550;28;1357;-86
2022/03/16 03:21:12;;;;;;;;;;;;;;;-0.62;86.79;101470.38;5035246;28;1322;-85
2022/03/16 03:23:37;;;;;;;;;;;;;;;-0.59;86.87;101473.50;5038169;28;1486;-85
2022/03/16 03:26:03;;;;;;;;;;;;;;;-0.51;87.21;101478.00;5035206;28;1294;-85
2022/03/16 03:28:28;;;;;;;;;;;;;;;-0.46;87.10;101472.88;5037174;28;1275;-84
2022/03/16 03:30:53;;;;;;;;;;;;;;;-0.62;86.79;101468.50;5038286;28;1898;-85
2022/03/16 03:33:18;;;;;;;;;;;;;;;-0.90;87.03;101480.88;5034736;28;1471;-85
2022/03/16 03:35:44;;;;;;;;;;;;;;;-1.07;87.16;101474.81;5038111;28;1325;-85
2022/03/16 03:38:09;;;;;;;;;;;;;;;-0.98;87.34;101480.94;5055911;28;1427;-85
2022/03/16 03:40:34;;;;;;;;;;;;;;;-0.85;87.72;101471.25;5038227;28;811;-85
2022/03/16 03:42:59;;;;;;;;;;;;;;;-0.72;88.07;101473.31;5037998;28;968;-85
2022/03/16 03:45:25;;;;;;;;;;;;;;;-0.67;88.10;101475.44;5056036;28;1467;-85
2022/03/16 03:47:50;;;;;;;;;;;;;;;-0.64;87.94;101473.22;5038156;28;1194;-84
2022/03/16 03:50:16;;;;;;;;;;;;;;;-0.53;88.04;101478.16;5029796;28;1906;-85
2022/03/16 03:52:41;;;;;;;;;;;;;;;-0.47;87.95;101466.66;5031553;28;1244;-85
2022/03/16 03:55:06;;;;;;;;;;;;;;;-0.44;87.28;101466.31;5038179;28;1462;-85
2022/03/16 03:57:31;;;;;;;;;;;;;;;-0.41;87.32;101465.91;5036124;28;1216;-84
2022/03/16 03:59:57;;;;;;;;;;;;;;;-0.49;87.37;101466.00;5055468;28;1526;-83
2022/03/16 04:02:22;;;;;;;;;;;;;;;-0.49;87.62;101467.88;5051304;28;1254;-85
2022/03/16 04:04:47;;;;;;;;;;;;;;;-0.40;87.69;101469.44;5058289;28;1546;-84
2022/03/16 04:07:12;;;;;;;;;;;;;;;-0.33;87.50;101473.06;5060896;28;1569;-84
2022/03/16 04:30:16;;;;;;;;;;;;;;;-0.29;92.53;101493.19;5093681;28;1889;-88
2022/03/16 04:32:41;;;;;;;;;;;;;;;-0.33;92.54;101491.88;5077177;28;1474;-88
2022/03/16 04:53:59;;;;;;;;;;;;;;;-0.12;94.56;101515.38;5072692;28;1231;-87
2022/03/16 04:56:46;;;;;;;;;;;;;;;-0.16;94.86;101514.06;5075041;28;805;-87
2022/03/16 04:59:38;;;;;;;;;;;;;;;-0.16;94.91;101514.91;5073095;28;1316;-88
2022/03/16 05:02:04;;;;;;;;;;;;;;;-0.08;94.62;101516.66;5073354;28;1355;-86
2022/03/16 05:04:29;;;;;;;;;;;;;;;-0.07;94.54;101518.34;5073510;28;1303;-87
2022/03/16 05:06:54;;;;;;;;;;;;;;;0.03;94.42;101518.88;5073135;28;1219;-86
2022/03/16 05:09:19;;;;;;;;;;;;;;;0.07;93.97;101519.38;5072888;28;1249;-87
2022/03/16 05:11:45;;;;;;;;;;;;;;;0.02;93.92;101529.84;5072929;28;1967;-87
2022/03/16 05:14:13;;;;;;;;;;;;;;;-0.02;93.71;101540.16;5058926;28;1442;-88
2022/03/16 05:20:09;;;;;;;;;;;;;;;0.08;93.99;101543.41;4955241;28;1299;-88
2022/03/16 05:22:49;;;;;;;;;;;;;;;0.15;93.89;101543.50;4938850;29;1185;-89
2022/03/16 05:25:31;;;;;;;;;;;;;;;0.20;94.11;101549.13;5026795;28;1401;-89
2022/03/16 05:28:31;;;;;;;;;;;;;;;0.25;94.40;101544.03;5034233;28;1342;-88
2022/03/16 05:30:59;;;;;;;;;;;;;;;0.16;94.22;101556.78;4982758;28;1948;-88
2022/03/16 05:33:32;;;;;;;;;;;;;;;0.21;94.41;101558.88;5033790;28;1195;-89
2022/03/16 05:36:00;;;;;;;;;;;;;;;0.23;94.69;101560.38;5034152;28;1301;-88
2022/03/16 05:43:28;;;;;;;;;;;;;;;0.18;94.97;101575.41;5052989;28;1772;-87
2022/03/16 05:45:53;;;;;;;;;;;;;;;0.22;95.08;101577.56;5035956;28;1164;-88
2022/03/16 05:48:18;;;;;;;;;;;;;;;0.18;95.43;101578.94;5036327;28;1550;-88
2022/03/16 05:50:45;;;;;;;;;;;;;;;0.11;95.84;101579.88;5016550;28;1906;-87
2022/03/16 05:53:11;;;;;;;;;;;;;;;0.14;95.96;101587.59;5009763;28;1381;-88
2022/03/16 05:55:38;;;;;;;;;;;;;;;0.10;96.08;101580.88;5007330;28;1233;-88
2022/03/16 05:58:03;;;;;;;;;;;;;;;0.10;96.02;101591.66;5016300;28;1268;-89
2022/03/16 06:00:28;;;;;;;;;;;;;;;-0.01;96.14;101592.97;5015968;28;1695;-87
2022/03/16 06:02:53;;;;;;;;;;;;;;;-0.01;96.03;101585.72;5033866;28;792;-87
2022/03/16 06:05:18;;;;;;;;;;;;;;;-0.05;96.23;101597.03;5015997;28;1291;-88
2022/03/16 06:07:44;;;;;;;;;;;;;;;-0.02;95.92;101599.38;5033506;28;1271;-88
2022/03/16 06:10:10;;;;;;;;;;;;;;;-0.10;95.77;101596.75;5019921;28;1963;-89
2022/03/16 06:12:54;;;;;;;;;;;;;;;-0.11;95.67;101597.78;5033784;28;1342;-88
2022/03/16 06:15:20;;;;;;;;;;;;;;;-0.10;95.74;101594.91;5027811;28;1395;-89
2022/03/16 06:17:45;;;;;;;;;;;;;;;-0.14;96.06;101604.34;5031383;28;1267;-89
2022/03/16 06:20:10;;;;;;;;;;;;;;;-0.06;95.84;101598.03;5015757;28;1290;-87
2022/03/16 06:22:35;;;;;;;;;;;;;;;0.04;95.64;101609.38;5033536;28;1027;-89
2022/03/16 06:25:00;;;;;;;;;;;;;;;0.09;95.60;101608.81;5032155;28;900;-88
2022/03/16 06:27:26;;;;;;;;;;;;;;;0.05;95.51;101602.16;5036953;28;968;-88
2022/03/16 06:29:51;;;;;;;;;;;;;;;0.00;95.65;101610.78;5019496;28;1957;-89
2022/03/16 06:32:16;;;;;;;;;;;;;;;-0.02;95.56;101607.44;5019485;28;991;-89
2022/03/16 06:34:41;;;;;;;;;;;;;;;0.01;95.62;101612.44;5019415;28;964;-88
2022/03/16 06:37:06;;;;;;;;;;;;;;;0.04;95.68;101617.47;5019587;28;1189;-89
2022/03/16 06:39:31;;;;;;;;;;;;;;;0.05;96.08;101616.44;5019415;28;1219;-89
2022/03/16 06:41:56;;;;;;;;;;;;;;;0.19;95.95;101626.38;5019194;28;1205;-87
2022/03/16 06:44:22;;;;;;;;;;;;;;;0.29;95.70;101621.56;5019276;28;1272;-89
2022/03/16 06:46:48;;;;;;;;;;;;;;;0.36;95.56;101627.88;5019143;28;949;-87
2022/03/16 06:49:13;;;;;;;;;;;;;;;0.40;95.32;101627.50;5019322;28;1381;-89
2022/03/16 06:51:38;;;;;;;;;;;;;;;0.36;95.22;101625.16;5019430;28;1910;-89
2022/03/16 06:54:04;;;;;;;;;;;;;;;0.40;95.13;101630.19;5023364;28;1060;-88
2022/03/16 06:56:29;;;;;;;;;;;;;;;0.38;95.52;101627.69;5019265;28;1055;-89
2022/03/16 06:58:54;;;;;;;;;;;;;;;0.37;95.67;101626.84;5036631;28;1217;-88
2022/03/16 07:01:19;;;;;;;;;;;;;;;0.50;95.56;101644.22;5036746;28;988;-89
2022/03/16 07:03:44;;;;;;;;;;;;;;;0.50;95.46;101638.84;5018667;28;1254;-89
2022/03/16 07:06:10;;;;;;;;;;;;;;;0.49;95.65;101643.38;5018792;28;1364;-87
2022/03/16 07:08:35;;;;;;;;;;;;;;;0.44;95.79;101642.25;5036479;28;1288;-88
2022/03/16 07:11:01;;;;;;;;;;;;;;;0.40;95.77;101652.56;5018765;28;1934;-89
2022/03/16 07:13:26;;;;;;;;;;;;;;;0.36;95.66;101649.41;5018487;28;1233;-88
2022/03/16 07:15:51;;;;;;;;;;;;;;;0.43;95.86;101644.09;5036329;28;774;-88
2022/03/16 07:18:16;;;;;;;;;;;;;;;0.46;95.82;101642.91;5036528;28;1011;-89
2022/03/16 07:20:41;;;;;;;;;;;;;;;0.55;95.54;101648.00;5018304;28;1234;-89
2022/03/16 07:23:09;;;;;;;;;;;;;;;0.66;95.48;101652.94;5009312;28;1193;-89
2022/03/16 07:25:35;;;;;;;;;;;;;;;0.70;95.31;101650.69;5014648;28;1249;-89
2022/03/16 07:28:00;;;;;;;;;;;;;;;0.74;95.32;101641.22;5015517;28;1354;-88
2022/03/16 07:30:25;;;;;;;;;;;;;;;0.82;95.11;101649.19;5014930;28;1941;-88
2022/03/16 07:32:50;;;;;;;;;;;;;;;0.83;95.32;101653.56;5018204;28;1586;-88
2022/03/16 07:35:16;;;;;;;;;;;;;;;0.87;95.29;101649.44;5035718;28;991;-88
2022/03/16 07:37:42;;;;;;;;;;;;;;;0.95;95.27;101637.72;5017585;28;1208;-89
2022/03/16 07:40:08;;;;;;;;;;;;;;;1.09;95.33;101640.41;5018189;28;1232;-89
2022/03/16 07:42:33;;;;;;;;;;;;;;;1.21;95.29;101637.19;5035809;28;810;-88
2022/03/16 07:44:58;;;;;;;;;;;;;;;1.25;95.31;101643.88;5017862;28;1266;-89
2022/03/16 07:47:26;;;;;;;;;;;;;;;1.30;95.08;101636.88;5018020;28;933;-88
2022/03/16 07:49:52;;;;;;;;;;;;;;;1.37;95.00;101637.75;5017768;28;1951;-89
2022/03/16 07:52:17;;;;;;;;;;;;;;;1.44;95.14;101643.25;5019027;28;1173;-88
2022/03/16 07:54:42;;;;;;;;;;;;;;;1.48;95.10;101631.88;5034168;28;1205;-88
2022/03/16 07:57:08;;;;;;;;;;;;;;;1.50;95.06;101632.53;5034549;28;1193;-88
2022/03/16 07:59:33;;;;;;;;;;;;;;;1.61;94.81;101633.03;5034423;28;1251;-89
2022/03/16 08:01:58;;;;;;;;;;;;;;;1.65;94.46;101634.28;5035600;28;1042;-88
2022/03/16 08:04:23;;;;;;;;;;;;;;;1.64;94.84;101630.75;5035184;28;1066;-89
2022/03/16 08:06:48;;;;;;;;;;;;;;;1.61;94.94;101633.88;5034212;28;785;-88
2022/03/16 08:09:13;;;;;;;;;;;;;;;1.67;94.62;101630.38;5034276;28;1233;-88
2022/03/16 08:11:39;;;;;;;;;;;;;;;1.71;94.49;101626.25;5034066;28;1939;-88
2022/03/16 08:14:04;;;;;;;;;;;;;;;1.65;94.57;101631.59;5033729;28;1263;-88
2022/03/16 08:16:29;;;;;;;;;;;;;;;1.48;94.64;101628.34;5035241;28;853;-89
2022/03/16 08:18:55;;;;;;;;;;;;;;;1.39;95.04;101621.41;5033936;28;1303;-89
2022/03/16 08:21:20;;;;;;;;;;;;;;;1.42;95.03;101623.72;5035240;28;1006;-89
2022/03/16 08:23:45;;;;;;;;;;;;;;;1.60;94.93;101621.41;5033741;28;1067;-89
2022/03/16 08:26:10;;;;;;;;;;;;;;;1.75;94.80;101624.00;5033945;28;873;-88
2022/03/16 08:28:35;;;;;;;;;;;;;;;1.74;94.12;101625.88;5033740;28;1370;-86
2022/03/16 08:31:01;;;;;;;;;;;;;;;1.74;94.01;101625.88;5033693;28;1894;-88
2022/03/16 08:33:26;;;;;;;;;;;;;;;1.80;93.92;101630.47;5034763;28;848;-88
2022/03/16 08:35:51;;;;;;;;;;;;;;;1.82;93.94;101636.53;5033763;28;1141;-89
2022/03/16 08:38:16;;;;;;;;;;;;;;;1.81;93.91;101629.44;5033597;28;1366;-88
2022/03/16 08:40:42;;;;;;;;;;;;;;;2.02;94.42;101634.00;5033410;28;1301;-88
2022/03/16 08:43:07;;;;;;;;;;;;;;;2.05;94.24;101632.75;5033238;28;1186;-88
2022/03/16 08:45:32;;;;;;;;;;;;;;;2.17;94.43;101631.19;5033652;28;1194;-89
2022/03/16 08:47:57;;;;;;;;;;;;;;;2.18;94.65;101633.69;5033381;28;927;-88
2022/03/16 08:50:22;;;;;;;;;;;;;;;2.26;94.57;101633.53;5032368;28;1899;-87
2022/03/16 08:52:48;;;;;;;;;;;;;;;2.53;94.69;101634.53;5033379;28;1278;-88
2022/03/16 08:55:15;;;;;;;;;;;;;;;2.63;93.98;101636.84;5032945;28;818;-88
2022/03/16 08:57:43;;;;;;;;;;;;;;;2.70;94.09;101637.72;5033266;28;1238;-88
2022/03/16 09:00:08;;;;;;;;;;;;;;;2.46;93.48;101601.22;5033045;28;1460;-87
2022/03/16 09:02:33;;;;;;;;;;;;;;;2.64;93.58;101638.50;5034371;28;1180;-88
2022/03/16 09:04:59;;;;;;;;;;;;;;;2.67;93.45;101630.84;5034031;28;735;-88
2022/03/16 09:07:24;;;;;;;;;;;;;;;2.74;93.58;101638.97;5033124;28;1238;-89
2022/03/16 09:09:49;;;;;;;;;;;;;;;2.82;93.53;101627.13;5032962;28;1195;-88
2022/03/16 09:12:15;;;;;;;;;;;;;;;2.95;93.41;101627.22;5032850;28;1961;-89
2022/03/16 09:14:41;;;;;;;;;;;;;;;3.02;93.19;101623.47;5032724;28;1204;-88
2022/03/16 09:17:07;;;;;;;;;;;;;;;3.17;92.99;101626.00;5032871;28;1236;-86
2022/03/16 09:19:33;;;;;;;;;;;;;;;3.23;92.24;101624.38;5032744;28;1239;-89
2022/03/16 09:22:00;;;;;;;;;;;;;;;3.23;92.12;101627.91;5032800;28;1343;-88
2022/03/16 09:24:25;;;;;;;;;;;;;;;3.27;92.74;101615.63;5033792;28;781;-89
2022/03/16 09:26:51;;;;;;;;;;;;;;;3.29;92.48;101613.56;5032621;28;853;-88
2022/03/16 09:29:18;;;;;;;;;;;;;;;3.30;92.50;101609.81;5033829;28;1302;-88
2022/03/16 09:31:44;;;;;;;;;;;;;;;3.30;92.43;101617.09;5032706;28;1894;-87
2022/03/16 09:34:09;;;;;;;;;;;;;;;3.23;92.16;101619.78;5032246;28;1192;-88
2022/03/16 09:36:35;;;;;;;;;;;;;;;3.17;92.71;101614.34;5032362;28;1236;-89
2022/03/16 09:39:00;;;;;;;;;;;;;;;3.08;92.77;101613.72;5033530;28;1205;-88
2022/03/16 09:41:26;;;;;;;;;;;;;;;3.01;92.78;101610.16;5032429;28;1410;-87
2022/03/16 09:43:52;;;;;;;;;;;;;;;3.11;93.33;101599.78;5032211;28;1291;-87
2022/03/16 09:46:21;;;;;;;;;;;;;;;3.23;93.40;101602.75;5033489;28;1012;-88
2022/03/16 09:48:46;;;;;;;;;;;;;;;3.31;93.46;101595.25;5032287;28;1355;-88
2022/03/16 09:51:11;;;;;;;;;;;;;;;3.41;93.31;101594.81;5032271;28;1960;-89
2022/03/16 09:53:36;;;;;;;;;;;;;;;3.50;93.47;101593.59;5032249;28;1331;-88
2022/03/16 09:56:03;;;;;;;;;;;;;;;3.59;93.57;101588.81;5032503;28;1168;-88
2022/03/16 09:58:28;;;;;;;;;;;;;;;3.59;93.69;101584.22;5032214;28;1291;-88
2022/03/16 10:00:53;;;;;;;;;;;;;;;3.68;93.51;101579.44;5033145;28;1150;-88
2022/03/16 10:03:21;;;;;;;;;;;;;;;3.73;93.41;101579.66;5015636;28;1316;-89
2022/03/16 10:05:46;;;;;;;;;;;;;;;3.74;93.18;101570.50;5015571;28;1262;-88
2022/03/16 10:08:14;;;;;;;;;;;;;;;3.86;93.13;101570.69;5015646;28;1295;-89
2022/03/16 10:13:24;;;;;;;;;;;;;;;4.11;92.87;101566.25;5033510;28;608;-88
2022/03/16 10:15:49;;;;;;;;;;;;;;;4.21;92.66;101563.13;5015684;28;1295;-89
2022/03/16 10:18:16;;;;;;;;;;;;;;;4.32;92.59;101562.47;5015496;28;1120;-88
2022/03/16 10:20:41;;;;;;;;;;;;;;;4.40;92.53;101556.81;5015497;28;1237;-88
2022/03/16 10:23:06;;;;;;;;;;;;;;;4.55;92.15;101549.22;5015386;28;1150;-88
2022/03/16 10:25:33;;;;;;;;;;;;;;;4.65;91.57;101541.47;5015645;28;1355;-89
2022/03/16 10:28:10;;;;;;;;;;;;;;;4.73;91.55;101541.22;5033138;28;1113;-87
2022/03/16 10:30:36;;;;;;;;;;;;;;;4.88;90.99;101535.50;5015601;28;1949;-89
2022/03/16 10:33:02;;;;;;;;;;;;;;;4.97;91.11;101533.34;5015278;28;1363;-88
2022/03/16 10:35:27;;;;;;;;;;;;;;;5.20;90.45;101523.59;5015565;28;1213;-88
2022/03/16 10:38:05;;;;;;;;;;;;;;;5.29;89.63;101524.97;5015521;28;1261;-90
2022/03/16 10:40:30;;;;;;;;;;;;;;;5.46;89.21;101532.56;5015657;28;1264;-88
2022/03/16 10:48:23;;;;;;;;;;;;;;;5.86;87.60;101530.34;5033117;28;682;-89
2022/03/16 10:50:50;;;;;;;;;;;;;;;6.03;86.83;101534.19;5031678;28;1964;-88
2022/03/16 10:53:16;;;;;;;;;;;;;;;6.13;85.51;101531.75;5032801;28;786;-89
2022/03/16 10:55:42;;;;;;;;;;;;;;;6.19;84.63;101514.56;5015249;28;1368;-88
2022/03/16 10:58:07;;;;;;;;;;;;;;;6.29;84.59;101514.84;5015246;28;1217;-89
2022/03/16 11:00:36;;;;;;;;;;;;;;;6.50;83.04;101518.16;5015303;28;1309;-89
2022/03/16 11:03:04;;;;;;;;;;;;;;;6.57;80.89;101503.41;5015031;28;1224;-89
2022/03/16 11:05:30;;;;;;;;;;;;;;;6.73;80.38;101499.19;5015589;28;1273;-88
2022/03/16 11:07:55;;;;;;;;;;;;;;;7.01;78.31;101495.88;5033015;28;797;-89
2022/03/16 11:10:20;;;;;;;;;;;;;;;7.03;77.73;101486.41;5015073;28;1898;-89
2022/03/16 11:15:30;;;;;;;;;;;;;;;7.18;76.94;101481.34;5036871;28;616;-89
2022/03/16 11:17:55;;;;;;;;;;;;;;;7.28;76.03;101482.66;5018613;28;1412;-87
2022/03/16 11:20:21;;;;;;;;;;;;;;;7.48;76.04;101481.28;5036391;28;1270;-88
2022/03/16 11:25:56;;;;;;;;;;;;;;;7.71;74.38;101485.91;5036550;28;608;-87
2022/03/16 11:28:30;;;;;;;;;;;;;;;8.03;72.80;101493.69;5018443;28;1298;-88
2022/03/16 11:30:58;;;;;;;;;;;;;;;8.07;70.63;101483.97;5018495;28;1951;-89
2022/03/16 11:33:25;;;;;;;;;;;;;;;7.95;71.29;101478.53;5018216;28;1292;-89
2022/03/16 11:35:52;;;;;;;;;;;;;;;8.03;71.17;101467.25;5018389;28;1252;-88
2022/03/16 11:38:18;;;;;;;;;;;;;;;8.08;71.22;101472.00;5018080;28;1200;-89
2022/03/16 11:40:44;;;;;;;;;;;;;;;8.21;70.03;101469.00;5035885;28;1283;-87
2022/03/16 11:43:15;;;;;;;;;;;;;;;8.26;69.03;101464.47;5018110;28;1292;-89
2022/03/16 11:45:41;;;;;;;;;;;;;;;8.31;69.13;101464.63;5035875;28;841;-90
2022/03/16 11:48:25;;;;;;;;;;;;;;;8.56;68.72;101467.00;5035639;28;1031;-87
2022/03/16 11:51:05;;;;;;;;;;;;;;;8.57;68.09;101463.22;5017891;28;1889;-88
2022/03/16 11:53:51;;;;;;;;;;;;;;;8.64;67.22;101458.44;5017794;28;1228;-87
2022/03/16 11:56:24;;;;;;;;;;;;;;;8.87;66.77;101462.94;5017797;28;1205;-87
2022/03/16 11:58:52;;;;;;;;;;;;;;;8.88;67.29;101459.13;5023224;28;1335;-88
2022/03/16 12:01:22;;;;;;;;;;;;;;;8.90;67.26;101461.63;4998249;28;1205;-88
2022/03/16 12:03:51;;;;;;;;;;;;;;;8.90;68.36;101446.06;5015930;28;860;-88
2022/03/16 12:06:19;;;;;;;;;;;;;;;8.94;67.42;101446.38;4998159;28;1177;-88
2022/03/16 12:08:50;;;;;;;;;;;;;;;9.03;67.61;101440.28;5015518;28;1197;-89
2022/03/16 12:14:04;;;;;;;;;;;;;;;9.41;65.85;101430.53;5015527;28;596;-87
2022/03/16 12:16:39;;;;;;;;;;;;;;;9.46;64.84;101425.94;4997928;28;1211;-89
2022/03/16 12:19:24;;;;;;;;;;;;;;;9.61;64.24;101430.00;4997969;28;1356;-89
2022/03/16 12:21:50;;;;;;;;;;;;;;;9.51;64.49;101424.38;5016073;28;1128;-88
2022/03/16 12:30:00;;;;;;;;;;;;;;;9.64;64.60;101419.38;5017815;28;1224;-88
2022/03/16 12:32:27;;;;;;;;;;;;;;;9.74;63.62;101424.16;5016426;28;1891;-88
2022/03/16 12:34:55;;;;;;;;;;;;;;;9.85;63.75;101423.22;5000433;28;1319;-87
2022/03/16 12:37:24;;;;;;;;;;;;;;;9.94;64.23;101427.19;4997717;28;1360;-89
2022/03/16 12:39:49;;;;;;;;;;;;;;;9.99;63.06;101419.03;5015182;28;1181;-88
2022/03/16 12:42:32;;;;;;;;;;;;;;;10.08;62.88;101419.41;4997572;28;1189;-89
2022/03/16 12:45:05;;;;;;;;;;;;;;;10.23;63.79;101425.91;4997275;28;1255;-88
2022/03/16 12:47:34;;;;;;;;;;;;;;;10.22;63.91;101417.97;4997459;28;1357;-88
2022/03/16 12:50:00;;;;;;;;;;;;;;;10.30;64.33;101416.69;5015065;28;1184;-89
2022/03/16 12:52:26;;;;;;;;;;;;;;;10.38;63.94;101408.84;4997312;28;1902;-86
2022/03/16 12:54:53;;;;;;;;;;;;;;;10.41;63.78;101415.72;5014905;28;801;-88
2022/03/16 12:57:19;;;;;;;;;;;;;;;10.43;63.56;101413.56;4997253;28;1420;-87
2022/03/16 12:59:46;;;;;;;;;;;;;;;10.42;63.79;101412.75;4997740;28;1281;-88
2022/03/16 13:02:12;;;;;;;;;;;;;;;10.46;63.40;101405.66;5013733;28;1242;-89
2022/03/16 13:04:37;;;;;;;;;;;;;;;10.52;63.27;101412.84;5014526;28;1020;-88
2022/03/16 13:07:03;;;;;;;;;;;;;;;10.67;63.10;101392.19;4997104;28;1292;-86
2022/03/16 13:09:33;;;;;;;;;;;;;;;10.83;63.12;101392.06;5013479;28;1284;-88
2022/03/16 13:12:08;;;;;;;;;;;;;;;11.02;63.21;101388.94;4997009;28;1894;-88
2022/03/16 13:14:43;;;;;;;;;;;;;;;11.42;61.78;101391.97;4996720;28;1158;-89
2022/03/16 13:17:08;;;;;;;;;;;;;;;13.12;57.97;101400.19;4996881;28;1391;-90
2022/03/16 13:19:34;;;;;;;;;;;;;;;15.42;49.82;101398.81;4996640;28;1210;-89
2022/03/16 13:22:04;;;;;;;;;;;;;;;16.07;48.53;101393.72;4996705;28;1312;-89
2022/03/16 13:24:31;;;;;;;;;;;;;;;16.83;43.75;101384.38;4996487;28;1347;-89
2022/03/16 13:26:56;;;;;;;;;;;;;;;16.63;45.00;101383.56;4996782;28;1230;-88
2022/03/16 13:29:22;;;;;;;;;;;;;;;16.94;45.47;101381.13;4996810;28;1282;-88
2022/03/16 13:31:52;;;;;;;;;;;;;;;17.28;43.52;101380.00;5014168;28;1902;-89
2022/03/16 13:34:18;;;;;;;;;;;;;;;17.89;40.55;101367.78;5013912;28;980;-89
2022/03/16 13:36:44;;;;;;;;;;;;;;;18.12;41.56;101372.28;4995887;28;1296;-88
2022/03/16 13:39:30;;;;;;;;;;;;;;;18.08;40.49;101371.25;4996535;28;1422;-89
2022/03/16 13:42:07;;;;;;;;;;;;;;;18.27;40.11;101373.91;5012835;28;1237;-90
2022/03/16 13:44:37;;;;;;;;;;;;;;;18.03;39.88;101368.63;4996292;28;1371;-89
2022/03/16 13:47:02;;;;;;;;;;;;;;;17.73;40.69;101373.63;4996455;28;1363;-89
2022/03/16 13:49:31;;;;;;;;;;;;;;;17.05;41.47;101364.38;4996247;28;1315;-89
2022/03/16 13:52:18;;;;;;;;;;;;;;;16.66;41.63;101359.22;4996243;28;1961;-89
2022/03/16 13:54:43;;;;;;;;;;;;;;;16.03;43.26;101368.63;4996100;28;1276;-90
2022/03/16 13:57:10;;;;;;;;;;;;;;;14.56;45.86;101372.78;5013815;28;814;-89
2022/03/16 13:59:35;;;;;;;;;;;;;;;13.79;47.54;101368.75;5012530;28;1210;-90
2022/03/16 14:02:11;;;;;;;;;;;;;;;13.86;48.45;101372.03;5013766;28;969;-88